Queen Elizabeth — ZCEF2 — position and weather

sailwx.info

Track history (hours):
 
Tides and Currents Weather Stations Pressure Air Temp Water Temp Dewpoint Dewpoint Depression Visibility Wind Speed Wind Dir Waves Ship Positions

Queen Elizabeth

Last reported at 2019-Apr-25 08:33 UTC. Time now 2019-Apr-25 15:47 UTC.
Position N 35°05' E 129°06'.

Length 294 m; draft 8 m.

Type: Ship. MMSI: 310625000.

Date/timePositionNaut miles runAvg speedWind from/ knotsBaromVisibWave heightAir tempDewpointWater temp
2019-Apr-25 08:33N 35°05' E 129°06'111.4
2019-Apr-25 08:30N 35°05' E 129°06'3 5.5
2019-Apr-25 08:00N 35°07' E 129°03'0 0.0
2019-Apr-25 07:30N 35°07' E 129°03'0 0.0
2019-Apr-25 06:57N 35°07' E 129°03'0 0.0
2019-Apr-25 06:27N 35°07' E 129°03'0 0.0
2019-Apr-25 06:00N 35°07' E 129°03'0 0.0
2019-Apr-25 05:30N 35°07' E 129°03'0 0.0
2019-Apr-25 05:00N 35°07' E 129°03'0 0.0
2019-Apr-25 04:30N 35°07' E 129°03'0 0.0
2019-Apr-25 04:00N 35°07' E 129°03'0 0.0
2019-Apr-25 03:27N 35°07' E 129°03'0 0.0
2019-Apr-25 03:00N 35°07' E 129°03'0 0.0
2019-Apr-25 02:27N 35°07' E 129°03'0 0.0
2019-Apr-25 02:00N 35°07' E 129°03'0 0.0
2019-Apr-25 01:30N 35°07' E 129°03'0 0.0
2019-Apr-25 00:57N 35°07' E 129°03'0 0.0
2019-Apr-25 00:27N 35°07' E 129°03'0 0.0
2019-Apr-24 23:57N 35°07' E 129°03'0 0.0
2019-Apr-24 23:27N 35°07' E 129°03'0 0.0
2019-Apr-24 22:57N 35°07' E 129°03'0 0.0
2019-Apr-24 22:30N 35°07' E 129°03'0 0.0
2019-Apr-24 21:57N 35°07' E 129°03'0 0.8
2019-Apr-24 21:30N 35°07' E 129°03'5 9.5
2019-Apr-24 20:56N 35°04' E 129°09'  
2019-Apr-20 15:00N 40°36' E 142°00'34813.9 300 / 151014.810.8 8.0 5.8 9.0
2019-Apr-19 13:55N 34°58' E 140°16'2913.1
2019-Apr-19 11:43N 34°57' E 139°41'815.9
2019-Apr-19 11:14N 35°05' E 139°43'415.6
2019-Apr-19 11:00N 35°08' E 139°44'612.9
2019-Apr-19 10:30N 35°15' E 139°46'612.3
2019-Apr-19 10:01N 35°20' E 139°43'612.2
2019-Apr-19 09:31N 35°26' E 139°43'2 3.9
2019-Apr-19 08:59N 35°27' E 139°41'0 0.0
2019-Apr-19 08:29N 35°27' E 139°41'0 0.0
2019-Apr-19 07:59N 35°27' E 139°41'0 0.0
2019-Apr-19 07:29N 35°27' E 139°41'0 0.0
2019-Apr-19 06:59N 35°27' E 139°41'0 0.0
2019-Apr-19 06:29N 35°27' E 139°41'0 0.0
2019-Apr-19 05:56N 35°27' E 139°41'0 0.0
2019-Apr-19 05:29N 35°27' E 139°41'0 0.0
2019-Apr-19 04:59N 35°27' E 139°41'0 0.0
2019-Apr-19 04:29N 35°27' E 139°41'0 0.0
2019-Apr-19 03:59N 35°27' E 139°41'0 0.0
2019-Apr-19 03:29N 35°27' E 139°41'0 0.0
2019-Apr-19 02:59N 35°27' E 139°41'0 0.0
2019-Apr-19 02:29N 35°27' E 139°41'0 0.0
2019-Apr-19 01:59N 35°27' E 139°41'0 0.0
2019-Apr-19 01:29N 35°27' E 139°41'0 0.0
2019-Apr-19 00:59N 35°27' E 139°41'0 0.0
2019-Apr-19 00:29N 35°27' E 139°41'0 0.0
2019-Apr-18 23:59N 35°27' E 139°41'0 0.0
2019-Apr-18 23:29N 35°27' E 139°41'0 0.0
2019-Apr-18 22:59N 35°27' E 139°41'0 0.0
2019-Apr-18 22:29N 35°27' E 139°41'0 0.0
2019-Apr-18 21:59N 35°27' E 139°41'0 0.0
2019-Apr-18 21:29N 35°27' E 139°41'0 0.0
2019-Apr-18 20:59N 35°27' E 139°41'1 3.0
2019-Apr-18 20:30N 35°26' E 139°42'3 6.3
2019-Apr-18 20:00N 35°23' E 139°43'5 9.9
2019-Apr-18 19:30N 35°19' E 139°44'611.7
2019-Apr-18 19:00N 35°13' E 139°47'611.7
2019-Apr-18 18:31N 35°07' E 139°46'815.1
2019-Apr-18 18:00N 35°01' E 139°41'6516.2
2019-Apr-18 14:00N 34°18' E 138°42'   200 / 151014.7 17.013.519.0
Track history (hours):
 
Tides and Currents Weather Stations Pressure Air Temp Water Temp Dewpoint Dewpoint Depression Visibility Wind Speed Wind Dir Waves Ship Positions

Queen Elizabeth

Last reported at 2019-Apr-25 08:33 UTC. Time now 2019-Apr-25 15:47 UTC.
Position N 35°05' E 129°06'.

Length 294 m; draft 8 m.

Type: Ship. MMSI: 310625000.

Date/timePositionNaut miles runAvg speedWind from/ knotsBaromVisibWave heightAir tempDewpointWater temp
2019-Apr-25 08:33N 35°05' E 129°06'111.4
2019-Apr-25 08:30N 35°05' E 129°06'3 5.5
2019-Apr-25 08:00N 35°07' E 129°03'0 0.0
2019-Apr-25 07:30N 35°07' E 129°03'0 0.0
2019-Apr-25 06:57N 35°07' E 129°03'0 0.0
2019-Apr-25 06:27N 35°07' E 129°03'0 0.0
2019-Apr-25 06:00N 35°07' E 129°03'0 0.0
2019-Apr-25 05:30N 35°07' E 129°03'0 0.0
2019-Apr-25 05:00N 35°07' E 129°03'0 0.0
2019-Apr-25 04:30N 35°07' E 129°03'0 0.0
2019-Apr-25 04:00N 35°07' E 129°03'0 0.0
2019-Apr-25 03:27N 35°07' E 129°03'0 0.0
2019-Apr-25 03:00N 35°07' E 129°03'0 0.0
2019-Apr-25 02:27N 35°07' E 129°03'0 0.0
2019-Apr-25 02:00N 35°07' E 129°03'0 0.0
2019-Apr-25 01:30N 35°07' E 129°03'0 0.0
2019-Apr-25 00:57N 35°07' E 129°03'0 0.0
2019-Apr-25 00:27N 35°07' E 129°03'0 0.0
2019-Apr-24 23:57N 35°07' E 129°03'0 0.0
2019-Apr-24 23:27N 35°07' E 129°03'0 0.0
2019-Apr-24 22:57N 35°07' E 129°03'0 0.0
2019-Apr-24 22:30N 35°07' E 129°03'0 0.0
2019-Apr-24 21:57N 35°07' E 129°03'0 0.8
2019-Apr-24 21:30N 35°07' E 129°03'5 9.5
2019-Apr-24 20:56N 35°04' E 129°09'  
2019-Apr-20 15:00N 40°36' E 142°00'34813.9 300 / 151014.810.8 8.0 5.8 9.0
2019-Apr-19 13:55N 34°58' E 140°16'2913.1
2019-Apr-19 11:43N 34°57' E 139°41'815.9
2019-Apr-19 11:14N 35°05' E 139°43'415.6
2019-Apr-19 11:00N 35°08' E 139°44'612.9
2019-Apr-19 10:30N 35°15' E 139°46'612.3
2019-Apr-19 10:01N 35°20' E 139°43'612.2
2019-Apr-19 09:31N 35°26' E 139°43'2 3.9
2019-Apr-19 08:59N 35°27' E 139°41'0 0.0
2019-Apr-19 08:29N 35°27' E 139°41'0 0.0
2019-Apr-19 07:59N 35°27' E 139°41'0 0.0
2019-Apr-19 07:29N 35°27' E 139°41'0 0.0
2019-Apr-19 06:59N 35°27' E 139°41'0 0.0
2019-Apr-19 06:29N 35°27' E 139°41'0 0.0
2019-Apr-19 05:56N 35°27' E 139°41'0 0.0
2019-Apr-19 05:29N 35°27' E 139°41'0 0.0
2019-Apr-19 04:59N 35°27' E 139°41'0 0.0
2019-Apr-19 04:29N 35°27' E 139°41'0 0.0
2019-Apr-19 03:59N 35°27' E 139°41'0 0.0
2019-Apr-19 03:29N 35°27' E 139°41'0 0.0
2019-Apr-19 02:59N 35°27' E 139°41'0 0.0
2019-Apr-19 02:29N 35°27' E 139°41'0 0.0
2019-Apr-19 01:59N 35°27' E 139°41'0 0.0
2019-Apr-19 01:29N 35°27' E 139°41'0 0.0
2019-Apr-19 00:59N 35°27' E 139°41'0 0.0
2019-Apr-19 00:29N 35°27' E 139°41'0 0.0
2019-Apr-18 23:59N 35°27' E 139°41'0 0.0
2019-Apr-18 23:29N 35°27' E 139°41'0 0.0
2019-Apr-18 22:59N 35°27' E 139°41'0 0.0
2019-Apr-18 22:29N 35°27' E 139°41'0 0.0
2019-Apr-18 21:59N 35°27' E 139°41'0 0.0
2019-Apr-18 21:29N 35°27' E 139°41'0 0.0
2019-Apr-18 20:59N 35°27' E 139°41'1 3.0
2019-Apr-18 20:30N 35°26' E 139°42'3 6.3
2019-Apr-18 20:00N 35°23' E 139°43'5 9.9
2019-Apr-18 19:30N 35°19' E 139°44'611.7
2019-Apr-18 19:00N 35°13' E 139°47'611.7
2019-Apr-18 18:31N 35°07' E 139°46'815.1
2019-Apr-18 18:00N 35°01' E 139°41'6516.2
2019-Apr-18 14:00N 34°18' E 138°42'   200 / 151014.7 17.013.519.0

Dump ship's entire track history